Laughlin Air Force Base
KDLF : now visible

Airfield :











YOU CAN JOIN US ON...

 
LOGIN :

Register | Disclaimer

   EN    FR    IT 

 









Legend :    VFR   Marginal VFR   IFR   Intensive IFR   Very Intensive IFR
Visi :
Ceiling :
>= 8 km
>= 3000ft
5 to 8 km
1000 to 3000 ft
1500m to 5 km
500 to 1000 ft
800 to 1500m
200 to 500 ft
< 800m
< 200 ft
Symbols :   Thunderstorms  Fog  Heavy snow  Heavy precipitations  Wind > 20 kt






- Airport Elevation : 1082 ft


KDLF - Laughlin Air Force Base

CURRENT METAR :
  • 010156Z AUTO 07005KT 10SM OVC210 22/06 A2995 RMK AO2 SLP134 T02200062 $

EXPIRED METARs :
  • 010056Z AUTO 07003KT 10SM SCT220 25/05 A2995 RMK AO2 SLP135 T02450053 $
  • 312356Z AUTO 03004KT 10SM CLR 27/02 A2994 RMK AO2 SLP131 T02730016 10301 20258 56010 $

TAF AMD TAF KDLF
Valid from the 31 at 23:00 until the 02 at 00:00 UTC


312352Z 3123/0124 36009KT 9999 FEW190 QNH2993INS
BECMG 0102/0103 09010KT 9999 BKN190 QNH2993INS
BECMG 0114/0115 13012G18KT 9999 SCT023 SCT150 QNH2999INS
BECMG 0117/0118 16015G20KT 9999 FEW260 QNH2979INS TX29/3123Z TN14/0111Z LAST NO AMDS AFT 3123 NEXT 0113



MET'MAP, your aeronautical weather chart ! - Copyright ORBIFLY December 2007 - Disclaimer

ORBIFLY MET'MAP TEAM :

Programming & Development : Alexandra Zaïnal
Concept & original design : Baudouin d'Aumeries
Assistance for programming : Marc-Olivier Méhu
Technical & hardware support : Manuel Goepfert

Contact : metmap@orbifly.com




SOURCES & CREDITS :

   NOAA       Earth
Advisory